createdAt,value
2023-01-09T00:00:57.819Z,91.67
2023-01-09T00:03:25.275Z,91.37
2023-01-09T00:05:52.496Z,91.12
2023-01-09T00:08:19.722Z,90.83
2023-01-09T00:10:49.339Z,90.31
2023-01-09T00:13:18.123Z,90.27
2023-01-09T00:15:45.544Z,90.64
2023-01-09T00:18:13.083Z,90.80
2023-01-09T00:20:40.539Z,90.74
2023-01-09T00:23:07.748Z,91.01
2023-01-09T00:25:35.719Z,91.01
2023-01-09T00:28:02.821Z,91.00
2023-01-09T00:30:30.007Z,91.40
2023-01-09T00:32:57.469Z,91.43
2023-01-09T00:35:26.668Z,92.02
2023-01-09T00:37:53.920Z,92.05
2023-01-09T00:40:21.730Z,91.85
2023-01-09T00:42:52.876Z,92.05
2023-01-09T00:45:28.600Z,92.36
2023-01-09T00:48:02.049Z,92.46
2023-01-09T00:50:32.044Z,92.23
2023-01-09T00:53:02.561Z,92.05
2023-01-09T00:55:29.649Z,92.50
2023-01-09T00:57:57.029Z,92.34
2023-01-09T01:00:24.450Z,91.83
2023-01-09T01:02:51.621Z,91.85
2023-01-09T01:05:36.999Z,91.49
2023-01-09T01:08:11.184Z,91.45
2023-01-09T01:10:38.445Z,91.73
2023-01-09T01:13:05.834Z,91.99
2023-01-09T01:15:32.914Z,92.09
2023-01-09T01:18:00.066Z,92.09
2023-01-09T01:20:27.401Z,92.35
2023-01-09T01:22:54.476Z,92.55
2023-01-09T01:25:22.036Z,92.01
2023-01-09T01:27:50.008Z,91.91
2023-01-09T01:30:18.583Z,91.54
2023-01-09T01:32:45.816Z,91.67
2023-01-09T01:35:13.316Z,91.63
2023-01-09T01:37:40.759Z,91.77
2023-01-09T01:40:11.609Z,91.60
2023-01-09T01:42:46.651Z,91.96
2023-01-09T01:45:23.110Z,92.87
2023-01-09T01:47:57.359Z,92.28
2023-01-09T01:50:26.317Z,92.84
2023-01-09T01:53:02.985Z,92.83
2023-01-09T01:55:30.394Z,93.03
2023-01-09T01:58:00.439Z,92.56
2023-01-09T02:00:31.959Z,92.96
2023-01-09T02:02:59.916Z,92.98
2023-01-09T02:05:27.487Z,93.10
2023-01-09T02:07:54.879Z,93.10
2023-01-09T02:10:23.625Z,92.88
2023-01-09T02:12:51.298Z,92.95
2023-01-09T02:15:18.865Z,92.99
2023-01-09T02:18:07.275Z,92.86
2023-01-09T02:20:46.192Z,92.14
2023-01-09T02:23:32.077Z,92.58
2023-01-09T02:26:36.417Z,92.49
2023-01-09T02:29:12.468Z,92.38
2023-01-09T02:31:45.617Z,91.98
2023-01-09T02:34:22.382Z,91.45
2023-01-09T02:37:01.960Z,91.24
2023-01-09T02:39:52.329Z,90.23
2023-01-09T02:42:23.820Z,89.31
2023-01-09T02:44:51.292Z,88.55
2023-01-09T02:47:18.373Z,88.18
2023-01-09T02:49:48.376Z,87.33
2023-01-09T02:52:30.466Z,86.82
2023-01-09T02:55:00.737Z,87.04
2023-01-09T02:57:36.899Z,86.36
2023-01-09T03:00:09.541Z,86.13
2023-01-09T03:02:57.718Z,86.09
2023-01-09T03:05:32.832Z,86.20
2023-01-09T03:08:03.405Z,86.40
2023-01-09T03:10:42.977Z,86.42
2023-01-09T03:13:12.196Z,86.40
2023-01-09T03:15:41.715Z,86.07
2023-01-09T03:18:10.467Z,86.03
2023-01-09T03:20:38.461Z,86.03
2023-01-09T03:23:07.116Z,86.49
2023-01-09T03:25:34.550Z,87.14
2023-01-09T03:28:04.537Z,87.74
2023-01-09T03:30:33.577Z,86.69
2023-01-09T03:33:01.186Z,87.96
2023-01-09T03:35:28.359Z,87.13
2023-01-09T03:37:55.803Z,86.76
2023-01-09T03:40:22.896Z,87.00
2023-01-09T03:42:50.053Z,87.75
2023-01-09T03:45:17.505Z,87.21
2023-01-09T03:47:44.659Z,87.33
2023-01-09T03:50:11.746Z,87.62
2023-01-09T03:52:39.146Z,88.45
2023-01-09T03:55:06.602Z,88.88
2023-01-09T03:57:33.720Z,89.73
2023-01-09T04:00:01.144Z,88.76
2023-01-09T04:02:28.348Z,88.41
2023-01-09T04:04:55.780Z,89.01
2023-01-09T04:07:22.917Z,89.09
2023-01-09T04:09:50.075Z,89.23
2023-01-09T04:12:17.555Z,88.99
2023-01-09T04:14:44.692Z,89.40
2023-01-09T04:17:11.864Z,89.15
2023-01-09T04:19:39.345Z,89.00
2023-01-09T04:22:06.516Z,90.35
2023-01-09T04:24:33.654Z,90.81
2023-01-09T04:27:01.086Z,89.92
2023-01-09T04:29:28.328Z,89.10
2023-01-09T04:31:55.505Z,89.06
2023-01-09T04:34:25.585Z,90.90
2023-01-09T04:36:53.411Z,90.77
2023-01-09T04:39:21.148Z,89.55
2023-01-09T04:41:51.654Z,89.89
2023-01-09T04:44:25.720Z,90.35
2023-01-09T04:46:53.307Z,89.57
2023-01-09T04:49:21.205Z,89.54
2023-01-09T04:51:48.459Z,89.07
2023-01-09T04:54:16.151Z,90.17
2023-01-09T04:56:43.284Z,89.94
2023-01-09T04:59:10.443Z,90.38
2023-01-09T05:01:38.084Z,90.90
2023-01-09T05:04:05.600Z,90.23
2023-01-09T05:06:34.147Z,90.21
2023-01-09T05:09:01.661Z,90.42
2023-01-09T05:11:28.910Z,90.61
2023-01-09T05:13:56.047Z,87.64
2023-01-09T05:16:23.580Z,86.48
2023-01-09T05:18:56.415Z,86.04
2023-01-09T05:21:24.624Z,84.92
2023-01-09T05:23:52.172Z,83.76
2023-01-09T05:26:23.959Z,82.76
2023-01-09T05:28:52.224Z,81.65
2023-01-09T05:31:20.147Z,80.96
2023-01-09T05:33:47.832Z,80.56
2023-01-09T05:36:15.505Z,78.24
2023-01-09T05:38:42.712Z,79.51
2023-01-09T05:41:10.232Z,77.47
2023-01-09T05:43:37.639Z,77.82
2023-01-09T05:46:04.865Z,79.07
2023-01-09T05:48:31.952Z,80.42
2023-01-09T05:50:59.340Z,77.32
2023-01-09T05:53:26.725Z,75.88
2023-01-09T05:55:53.784Z,70.69
2023-01-09T05:58:21.164Z,71.96
2023-01-09T06:00:49.515Z,68.71
2023-01-09T06:03:16.875Z,71.20
2023-01-09T06:05:44.107Z,69.06
2023-01-09T06:08:11.157Z,66.42
2023-01-09T06:10:38.515Z,64.98
2023-01-09T06:13:05.609Z,63.54
2023-01-09T06:15:32.669Z,62.73
2023-01-09T06:18:00.131Z,62.83
2023-01-09T06:20:27.238Z,61.05
2023-01-09T06:22:54.360Z,61.35
2023-01-09T06:25:22.084Z,59.38
2023-01-09T06:27:49.893Z,59.83
2023-01-09T06:30:17.380Z,60.79
2023-01-09T06:32:44.943Z,59.72
2023-01-09T06:35:12.096Z,60.34
2023-01-09T06:37:39.219Z,58.73
2023-01-09T06:40:07.561Z,58.49
2023-01-09T06:42:34.714Z,57.74
2023-01-09T06:45:01.845Z,58.79
2023-01-09T06:47:29.297Z,58.43
2023-01-09T06:49:58.157Z,60.33
2023-01-09T06:52:25.342Z,60.78
2023-01-09T06:54:52.766Z,61.80
2023-01-09T06:57:19.915Z,61.53
2023-01-09T06:59:47.142Z,62.40
2023-01-09T07:02:18.269Z,64.44
2023-01-09T07:04:45.514Z,63.80
2023-01-09T07:07:13.197Z,64.04
2023-01-09T07:09:40.626Z,63.22
2023-01-09T07:12:07.813Z,62.25
2023-01-09T07:14:35.049Z,65.60
2023-01-09T07:17:03.510Z,61.86
2023-01-09T07:19:30.709Z,65.48
2023-01-09T07:22:00.515Z,63.72
2023-01-09T07:24:27.959Z,61.98
2023-01-09T07:26:55.099Z,68.47
2023-01-09T07:29:22.333Z,66.50
2023-01-09T07:31:49.784Z,66.41
2023-01-09T07:34:16.913Z,67.53
2023-01-09T07:36:46.624Z,67.08
2023-01-09T07:39:14.202Z,68.68
2023-01-09T07:41:41.340Z,66.24
2023-01-09T07:44:11.065Z,63.20
2023-01-09T07:46:38.926Z,64.62
2023-01-09T07:49:06.510Z,65.59
2023-01-09T07:51:33.738Z,63.80
2023-01-09T07:54:01.333Z,66.58
2023-01-09T07:56:28.494Z,69.07
2023-01-09T07:58:55.641Z,66.97
2023-01-09T08:01:23.238Z,69.51
2023-01-09T08:03:50.779Z,64.05
2023-01-09T08:06:17.979Z,62.45
2023-01-09T08:08:45.224Z,65.41
2023-01-09T08:11:12.712Z,68.20
2023-01-09T08:13:39.890Z,71.11
2023-01-09T08:16:07.560Z,71.34
2023-01-09T08:18:35.110Z,70.93
2023-01-09T08:21:02.264Z,74.33
2023-01-09T08:23:29.472Z,77.12
2023-01-09T08:25:56.967Z,78.40
2023-01-09T08:28:24.125Z,78.77
2023-01-09T08:30:51.598Z,78.16
2023-01-09T08:33:19.102Z,78.61
2023-01-09T08:35:46.408Z,78.13
2023-01-09T08:38:13.641Z,77.51
2023-01-09T08:40:41.103Z,81.20
2023-01-09T08:43:28.101Z,84.15
2023-01-09T08:46:21.339Z,81.45
2023-01-09T08:48:48.528Z,80.96
2023-01-09T08:51:15.944Z,82.58
2023-01-09T08:53:43.016Z,80.82
2023-01-09T08:56:10.331Z,80.73
2023-01-09T08:58:37.781Z,80.30
2023-01-09T09:01:06.632Z,81.45
2023-01-09T09:03:33.702Z,80.80
2023-01-09T09:06:01.196Z,83.31
2023-01-09T09:08:28.273Z,81.11
2023-01-09T09:10:57.294Z,80.40
2023-01-09T09:13:24.702Z,80.72
2023-01-09T09:15:51.844Z,81.13
2023-01-09T09:18:19.085Z,81.18
2023-01-09T09:20:46.707Z,81.28
2023-01-09T09:23:13.829Z,83.05
2023-01-09T09:25:41.030Z,84.05
2023-01-09T09:28:10.575Z,81.56
2023-01-09T09:30:38.765Z,82.80
2023-01-09T09:33:06.018Z,82.08
2023-01-09T09:35:34.180Z,84.38
2023-01-09T09:38:04.969Z,86.18
2023-01-09T09:40:38.724Z,84.33
2023-01-09T09:43:58.917Z,84.94
2023-01-09T09:46:31.336Z,85.30
2023-01-09T09:49:06.482Z,85.43
2023-01-09T09:52:03.513Z,87.04
2023-01-09T09:54:50.979Z,83.86
2023-01-09T09:57:22.139Z,82.57
2023-01-09T09:59:51.490Z,82.50
2023-01-09T10:02:30.502Z,82.72
2023-01-09T10:05:06.185Z,83.69
2023-01-09T10:07:41.857Z,87.18
2023-01-09T10:10:33.664Z,86.25
2023-01-09T10:13:20.945Z,85.51
2023-01-09T10:16:03.540Z,86.21
2023-01-09T10:18:42.788Z,85.25
2023-01-09T10:21:24.448Z,84.09
2023-01-09T10:23:58.276Z,85.24
2023-01-09T10:26:43.524Z,87.01
2023-01-09T10:29:26.010Z,86.77
2023-01-09T10:32:12.171Z,87.67
2023-01-09T10:35:02.417Z,88.99
2023-01-09T10:37:33.774Z,90.10
2023-01-09T10:40:19.814Z,87.84
2023-01-09T10:42:50.882Z,89.55
2023-01-09T10:45:25.606Z,89.98
2023-01-09T10:47:58.211Z,89.11
2023-01-09T10:50:28.695Z,89.44
2023-01-09T10:52:56.567Z,89.69
2023-01-09T10:55:40.054Z,89.37
2023-01-09T10:58:16.877Z,88.84
2023-01-09T11:00:44.712Z,87.20
2023-01-09T11:03:23.301Z,86.29
2023-01-09T11:05:52.947Z,84.23
2023-01-09T11:08:40.197Z,84.10
2023-01-09T11:11:07.859Z,85.56
2023-01-09T11:13:43.566Z,86.88
2023-01-09T11:16:10.769Z,86.01
2023-01-09T11:18:40.423Z,85.88
2023-01-09T11:21:31.478Z,86.76
2023-01-09T11:24:27.851Z,86.22
2023-01-09T11:27:24.698Z,84.94
2023-01-09T11:30:12.875Z,85.67
2023-01-09T11:32:40.638Z,88.86
2023-01-09T11:35:17.416Z,90.36
2023-01-09T11:37:44.981Z,88.80
2023-01-09T11:40:18.554Z,87.78
2023-01-09T11:43:14.471Z,87.51
2023-01-09T11:45:53.233Z,88.34
2023-01-09T11:48:32.282Z,88.04
2023-01-09T11:51:01.210Z,88.41
2023-01-09T11:53:28.619Z,88.74
2023-01-09T11:56:03.562Z,87.53
2023-01-09T11:58:34.880Z,87.94
2023-01-09T12:01:17.355Z,89.56
2023-01-09T12:04:00.092Z,88.08
2023-01-09T12:06:48.915Z,88.64
2023-01-09T12:09:24.096Z,87.52
2023-01-09T12:12:31.727Z,88.25
2023-01-09T12:14:59.263Z,88.58
2023-01-09T12:17:52.806Z,90.82
2023-01-09T12:20:43.688Z,90.21
2023-01-09T12:23:25.915Z,92.12
2023-01-09T12:26:25.419Z,92.31
2023-01-09T12:29:07.660Z,90.25
2023-01-09T12:31:48.272Z,90.73
2023-01-09T12:34:41.057Z,90.39
2023-01-09T12:37:33.183Z,91.05
2023-01-09T12:40:03.289Z,93.14
2023-01-09T12:43:01.407Z,93.18
2023-01-09T12:45:41.384Z,93.82
2023-01-09T12:48:21.547Z,92.14
2023-01-09T12:50:48.636Z,91.36
2023-01-09T12:53:35.327Z,90.67
2023-01-09T12:56:15.827Z,90.90
2023-01-09T12:58:51.094Z,90.90
2023-01-09T13:01:25.358Z,89.92
2023-01-09T13:04:01.977Z,93.93
2023-01-09T13:06:29.908Z,89.05
2023-01-09T13:09:32.847Z,91.50
2023-01-09T13:12:15.724Z,93.64
2023-01-09T13:14:52.152Z,94.73
2023-01-09T13:17:30.392Z,97.87
2023-01-09T13:19:57.758Z,97.41
2023-01-09T13:22:27.585Z,97.15
2023-01-09T13:25:25.600Z,97.21
2023-01-09T13:27:58.320Z,96.69
2023-01-09T13:31:06.039Z,97.14
2023-01-09T13:33:36.051Z,97.01
2023-01-09T13:36:03.794Z,96.62
2023-01-09T13:38:32.737Z,96.41
2023-01-09T13:41:26.970Z,97.32
2023-01-09T13:43:56.326Z,94.81
2023-01-09T13:46:33.375Z,94.54
2023-01-09T13:49:01.224Z,95.47
2023-01-09T13:51:57.947Z,94.86
2023-01-09T13:54:55.810Z,94.21
2023-01-09T13:57:32.481Z,93.42
2023-01-09T14:00:19.464Z,93.88
2023-01-09T14:02:47.104Z,94.94
2023-01-09T14:05:15.197Z,94.70
2023-01-09T14:07:44.543Z,94.95
2023-01-09T14:10:26.721Z,94.47
2023-01-09T14:12:55.181Z,93.67
2023-01-09T14:15:29.330Z,93.38
2023-01-09T14:18:04.641Z,92.85
2023-01-09T14:20:39.699Z,92.90
2023-01-09T14:23:31.447Z,93.99
2023-01-09T14:25:55.853Z,94.04
2023-01-09T14:28:33.473Z,94.80
2023-01-09T14:31:00.962Z,94.74
2023-01-09T14:33:32.716Z,94.16
2023-01-09T14:35:59.780Z,94.36
2023-01-09T14:38:40.874Z,92.85
2023-01-09T14:41:47.309Z,92.10
2023-01-09T14:44:31.550Z,92.82
2023-01-09T14:47:15.958Z,92.38
2023-01-09T14:49:59.899Z,92.66
2023-01-09T14:52:30.444Z,91.90
2023-01-09T14:55:00.785Z,91.08
2023-01-09T14:57:31.484Z,91.64
2023-01-09T15:00:01.133Z,90.94
2023-01-09T15:02:31.876Z,91.53
2023-01-09T15:05:06.619Z,92.86
2023-01-09T15:07:40.549Z,93.27
2023-01-09T15:10:08.325Z,92.52
2023-01-09T15:12:35.887Z,93.06
2023-01-09T15:15:04.646Z,94.81
2023-01-09T15:17:34.447Z,96.30
2023-01-09T15:20:04.732Z,97.12
2023-01-09T15:22:37.061Z,97.75
2023-01-09T15:25:45.104Z,98.08
2023-01-09T15:28:32.464Z,96.73
2023-01-09T15:31:06.469Z,98.07
2023-01-09T15:33:33.973Z,98.68
2023-01-09T15:36:03.333Z,98.84
2023-01-09T15:38:32.182Z,98.33
2023-01-09T15:41:01.872Z,98.78
2023-01-09T15:43:30.133Z,99.64
2023-01-09T15:45:58.156Z,100.00
2023-01-09T15:48:32.462Z,100.00
2023-01-09T15:51:03.602Z,99.62
2023-01-09T15:53:31.213Z,98.34
2023-01-09T15:56:20.605Z,97.81
2023-01-09T15:58:49.380Z,98.48
2023-01-09T16:01:38.595Z,96.99
2023-01-09T16:04:18.406Z,96.62
2023-01-09T16:06:49.142Z,95.58
2023-01-09T16:09:21.912Z,94.56
2023-01-09T16:11:52.770Z,93.61
2023-01-09T16:14:27.476Z,92.44
2023-01-09T16:16:59.552Z,92.95
2023-01-09T16:19:32.567Z,92.73
2023-01-09T16:22:01.817Z,93.47
2023-01-09T16:24:41.092Z,93.89
2023-01-09T16:27:29.982Z,95.06
2023-01-09T16:30:06.017Z,96.00
2023-01-09T16:32:35.283Z,95.76
2023-01-09T16:35:14.755Z,96.43
2023-01-09T16:37:41.827Z,96.84
2023-01-09T16:40:15.808Z,97.62
2023-01-09T16:43:03.471Z,97.81
2023-01-09T16:45:39.185Z,99.06
2023-01-09T16:48:24.852Z,100.00
2023-01-09T16:50:52.388Z,100.00
2023-01-09T16:53:24.189Z,100.00
2023-01-09T16:55:53.301Z,100.00
2023-01-09T16:58:32.156Z,100.00
2023-01-09T17:01:01.407Z,100.00
2023-01-09T17:03:28.520Z,100.00
2023-01-09T17:05:56.761Z,100.00
2023-01-09T17:08:37.127Z,100.00
2023-01-09T17:11:04.320Z,100.00
2023-01-09T17:13:31.693Z,100.00
2023-01-09T17:15:59.235Z,100.00
2023-01-09T17:18:29.602Z,100.00
2023-01-09T17:20:58.791Z,100.00
2023-01-09T17:23:25.933Z,100.00
2023-01-09T17:26:18.657Z,100.00
2023-01-09T17:28:50.733Z,100.00
2023-01-09T17:31:18.068Z,100.00
2023-01-09T17:33:45.515Z,100.00
2023-01-09T17:36:26.444Z,100.00
2023-01-09T17:38:55.193Z,100.00
2023-01-09T17:41:24.035Z,100.00
2023-01-09T17:43:51.980Z,100.00
2023-01-09T17:46:33.272Z,100.00
2023-01-09T17:49:01.262Z,100.00
2023-01-09T17:51:29.418Z,100.00
2023-01-09T17:53:57.109Z,100.00
2023-01-09T17:56:26.432Z,100.00
2023-01-09T17:58:53.965Z,100.00
2023-01-09T18:01:21.514Z,100.00
2023-01-09T18:03:50.459Z,100.00
2023-01-09T18:06:19.257Z,100.00
2023-01-09T18:08:46.831Z,100.00
2023-01-09T18:11:19.534Z,100.00
2023-01-09T18:13:48.014Z,100.00
2023-01-09T18:16:18.034Z,100.00
2023-01-09T18:18:45.257Z,100.00
2023-01-09T18:21:16.181Z,100.00
2023-01-09T18:23:43.736Z,100.00
2023-01-09T18:26:18.474Z,100.00
2023-01-09T18:28:47.626Z,100.00
2023-01-09T18:31:17.321Z,100.00
2023-01-09T18:33:51.407Z,100.00
2023-01-09T18:36:20.036Z,100.00
2023-01-09T18:38:53.847Z,100.00
2023-01-09T18:41:21.873Z,100.00
2023-01-09T18:43:50.212Z,100.00
2023-01-09T18:46:20.701Z,100.00
2023-01-09T18:48:55.613Z,100.00
2023-01-09T18:51:24.325Z,100.00
2023-01-09T18:53:52.009Z,100.00
2023-01-09T18:56:20.012Z,100.00
2023-01-09T18:58:48.327Z,100.00
2023-01-09T19:01:16.525Z,100.00
2023-01-09T19:03:43.851Z,100.00
2023-01-09T19:06:11.060Z,100.00
2023-01-09T19:08:38.602Z,100.00
2023-01-09T19:11:05.920Z,100.00
2023-01-09T19:13:37.393Z,100.00
2023-01-09T19:16:05.951Z,100.00
2023-01-09T19:18:35.376Z,100.00
2023-01-09T19:21:02.696Z,100.00
2023-01-09T19:23:30.117Z,100.00
2023-01-09T19:25:57.843Z,100.00
2023-01-09T19:28:25.479Z,100.00
2023-01-09T19:30:56.903Z,100.00
2023-01-09T19:33:25.241Z,100.00
2023-01-09T19:35:53.245Z,100.00
2023-01-09T19:38:23.295Z,100.00
2023-01-09T19:40:50.529Z,100.00
2023-01-09T19:43:26.783Z,100.00
2023-01-09T19:45:56.781Z,100.00
2023-01-09T19:48:27.010Z,100.00
2023-01-09T19:51:05.192Z,100.00
2023-01-09T19:53:33.987Z,100.00
2023-01-09T19:56:12.895Z,100.00
2023-01-09T19:58:41.793Z,100.00
2023-01-09T20:01:17.757Z,100.00
2023-01-09T20:03:48.323Z,100.00
2023-01-09T20:06:19.309Z,100.00
2023-01-09T20:08:49.103Z,100.00
2023-01-09T20:11:16.570Z,100.00
2023-01-09T20:13:44.909Z,100.00
2023-01-09T20:16:20.639Z,100.00
2023-01-09T20:18:48.306Z,100.00
2023-01-09T20:23:54.372Z,100.00
2023-01-09T20:26:22.822Z,100.00
2023-01-09T20:28:50.067Z,100.00
2023-01-09T20:31:19.186Z,100.00
2023-01-09T20:33:47.837Z,100.00
2023-01-09T20:36:15.198Z,100.00
2023-01-09T20:38:43.197Z,100.00
2023-01-09T20:41:22.812Z,100.00
2023-01-09T20:43:55.742Z,100.00
2023-01-09T20:46:25.575Z,100.00
2023-01-09T20:48:55.776Z,100.00
2023-01-09T20:51:23.106Z,100.00
2023-01-09T20:53:58.399Z,100.00
2023-01-09T20:56:27.466Z,100.00
2023-01-09T20:58:55.396Z,100.00
2023-01-09T21:01:23.033Z,100.00
2023-01-09T21:03:51.272Z,100.00
2023-01-09T21:06:20.953Z,100.00
2023-01-09T21:08:50.993Z,100.00
2023-01-09T21:11:19.485Z,99.58
2023-01-09T21:13:46.834Z,100.00
2023-01-09T21:16:16.680Z,100.00
2023-01-09T21:18:44.614Z,100.00
2023-01-09T21:21:14.390Z,100.00
2023-01-09T21:23:53.862Z,100.00
2023-01-09T21:26:24.760Z,100.00
2023-01-09T21:28:54.944Z,100.00
2023-01-09T21:31:25.542Z,100.00
2023-01-09T21:33:54.506Z,100.00
2023-01-09T21:36:22.026Z,100.00
2023-01-09T21:38:52.061Z,100.00
2023-01-09T21:41:41.106Z,100.00
2023-01-09T21:44:30.358Z,100.00
2023-01-09T21:46:59.847Z,100.00
2023-01-09T21:49:30.969Z,100.00
2023-01-09T21:51:58.644Z,100.00
2023-01-09T21:54:26.100Z,100.00
2023-01-09T21:56:53.461Z,100.00
2023-01-09T21:59:20.718Z,100.00
2023-01-09T22:01:50.933Z,100.00
2023-01-09T22:04:21.115Z,100.00
2023-01-09T22:06:48.449Z,100.00
2023-01-09T22:09:16.104Z,100.00
2023-01-09T22:11:43.913Z,100.00
2023-01-09T22:14:16.116Z,100.00
2023-01-09T22:16:44.986Z,100.00
2023-01-09T22:19:13.260Z,100.00
2023-01-09T22:21:45.777Z,100.00
2023-01-09T22:24:14.975Z,100.00
2023-01-09T22:26:42.217Z,100.00
2023-01-09T22:29:09.343Z,100.00
2023-01-09T22:31:39.829Z,100.00
2023-01-09T22:34:07.064Z,100.00
2023-01-09T22:36:34.249Z,100.00
2023-01-09T22:39:01.791Z,100.00
2023-01-09T22:41:32.363Z,100.00
2023-01-09T22:43:59.556Z,100.00
2023-01-09T22:46:26.995Z,100.00
2023-01-09T22:48:54.136Z,100.00
2023-01-09T22:51:21.820Z,100.00
2023-01-09T22:53:49.921Z,100.00
2023-01-09T22:56:19.394Z,100.00
2023-01-09T22:58:51.156Z,100.00
2023-01-09T23:01:19.265Z,100.00
2023-01-09T23:03:47.043Z,100.00
2023-01-09T23:06:22.179Z,100.00
2023-01-09T23:08:50.907Z,100.00
2023-01-09T23:11:42.638Z,100.00
2023-01-09T23:14:10.830Z,100.00
2023-01-09T23:16:38.043Z,100.00
2023-01-09T23:19:19.187Z,100.00
2023-01-09T23:21:46.751Z,100.00
2023-01-09T23:24:16.197Z,100.00
2023-01-09T23:26:43.846Z,100.00
2023-01-09T23:29:11.979Z,100.00
2023-01-09T23:31:39.197Z,100.00
2023-01-09T23:34:08.194Z,100.00
2023-01-09T23:36:35.951Z,100.00
2023-01-09T23:39:04.230Z,100.00
2023-01-09T23:42:03.711Z,100.00
2023-01-09T23:44:31.083Z,100.00
2023-01-09T23:46:58.198Z,100.00
2023-01-09T23:49:25.300Z,100.00
2023-01-09T23:51:52.683Z,100.00
2023-01-09T23:54:20.457Z,100.00
2023-01-09T23:56:47.544Z,100.00
2023-01-09T23:59:16.865Z,100.00
